createdAt,value
2018-12-14T00:02:09.445Z,13.37
2018-12-14T00:04:36.932Z,12.23
2018-12-14T00:07:04.508Z,12.73
2018-12-14T00:09:31.992Z,13.60
2018-12-14T00:11:59.481Z,13.60
2018-12-14T00:14:26.977Z,12.67
2018-12-14T00:16:54.461Z,12.60
2018-12-14T00:19:21.953Z,12.70
2018-12-14T00:21:49.444Z,12.87
2018-12-14T00:24:16.945Z,13.30
2018-12-14T00:26:44.428Z,13.40
2018-12-14T00:29:11.928Z,13.07
2018-12-14T00:31:39.408Z,12.40
2018-12-14T00:34:06.897Z,11.60
2018-12-14T00:36:34.388Z,11.23
2018-12-14T00:39:01.877Z,11.80
2018-12-14T00:41:29.373Z,12.63
2018-12-14T00:43:56.865Z,12.90
2018-12-14T00:46:24.349Z,11.13
2018-12-14T00:48:51.838Z,11.97
2018-12-14T00:51:19.333Z,10.97
2018-12-14T00:53:46.821Z,11.70
2018-12-14T00:56:14.313Z,11.87
2018-12-14T00:58:41.797Z,11.13
2018-12-14T01:01:09.290Z,12.13
2018-12-14T01:03:36.821Z,12.10
2018-12-14T01:06:04.387Z,10.40
2018-12-14T01:08:31.871Z,12.93
2018-12-14T01:10:59.392Z,12.30
2018-12-14T01:13:26.872Z,12.30
2018-12-14T01:15:54.365Z,11.20
2018-12-14T01:18:21.856Z,12.87
2018-12-14T01:20:49.356Z,11.77
2018-12-14T01:23:16.845Z,12.63
2018-12-14T01:25:44.345Z,11.60
2018-12-14T01:28:11.834Z,11.10
2018-12-14T01:30:39.325Z,11.13
2018-12-14T01:33:06.818Z,11.70
2018-12-14T01:35:34.308Z,11.93
2018-12-14T01:38:01.805Z,11.53
2018-12-14T01:40:29.296Z,11.50
2018-12-14T01:42:56.825Z,12.40
2018-12-14T01:45:25.327Z,11.13
2018-12-14T01:47:52.811Z,10.70
2018-12-14T01:50:20.301Z,10.50
2018-12-14T01:52:47.798Z,11.20
2018-12-14T01:55:15.280Z,9.93
2018-12-14T01:57:42.762Z,9.97
2018-12-14T02:00:10.407Z,10.30
2018-12-14T02:02:37.888Z,10.40
2018-12-14T02:05:05.548Z,11.93
2018-12-14T02:07:33.113Z,11.10
2018-12-14T02:10:00.604Z,11.20
2018-12-14T02:12:28.088Z,12.00
2018-12-14T02:14:55.577Z,10.73
2018-12-14T02:17:23.057Z,11.17
2018-12-14T02:19:50.548Z,11.77
2018-12-14T02:22:18.028Z,11.13
2018-12-14T02:24:45.532Z,10.70
2018-12-14T02:27:13.027Z,10.17
2018-12-14T02:29:40.521Z,10.90
2018-12-14T02:32:08.087Z,10.13
2018-12-14T02:34:35.569Z,10.70
2018-12-14T02:37:03.052Z,12.10
2018-12-14T02:39:30.557Z,13.77
2018-12-14T02:41:58.038Z,12.80
2018-12-14T02:44:25.577Z,14.10
2018-12-14T02:46:53.140Z,13.10
2018-12-14T02:49:20.629Z,13.27
2018-12-14T02:51:48.128Z,14.23
2018-12-14T02:54:15.618Z,14.00
2018-12-14T02:56:43.108Z,12.70
2018-12-14T02:59:10.588Z,13.37
2018-12-14T03:01:38.080Z,12.77
2018-12-14T03:04:05.563Z,13.00
2018-12-14T03:06:33.049Z,12.70
2018-12-14T03:09:00.533Z,13.20
2018-12-14T03:11:28.017Z,13.13
2018-12-14T03:13:55.501Z,13.80
2018-12-14T03:16:22.986Z,14.27
2018-12-14T03:18:50.469Z,14.60
2018-12-14T03:21:17.965Z,14.20
2018-12-14T03:23:45.560Z,15.10
2018-12-14T03:26:13.129Z,13.40
2018-12-14T03:28:40.608Z,12.93
2018-12-14T03:31:08.098Z,15.10
2018-12-14T03:33:35.699Z,14.37
2018-12-14T03:36:03.185Z,14.60
2018-12-14T03:38:30.692Z,14.43
2018-12-14T03:40:58.186Z,14.87
2018-12-14T03:43:25.675Z,15.00
2018-12-14T03:45:53.169Z,12.90
2018-12-14T03:48:20.774Z,13.80
2018-12-14T03:50:48.269Z,13.20
2018-12-14T03:53:15.756Z,13.73
2018-12-14T03:55:43.250Z,12.57
2018-12-14T03:58:10.819Z,13.60
2018-12-14T04:00:38.377Z,12.50
2018-12-14T04:03:06.211Z,14.87
2018-12-14T04:05:33.768Z,13.40
2018-12-14T04:08:01.261Z,13.50
2018-12-14T04:10:28.745Z,14.30
2018-12-14T04:12:56.240Z,14.50
2018-12-14T04:15:23.740Z,13.77
2018-12-14T04:17:51.337Z,12.03
2018-12-14T04:20:18.826Z,11.83
2018-12-14T04:22:46.318Z,13.17
2018-12-14T04:25:13.808Z,12.43
2018-12-14T04:27:41.301Z,12.97
2018-12-14T04:30:08.861Z,13.47
2018-12-14T04:32:36.350Z,12.40
2018-12-14T04:35:04.013Z,12.60
2018-12-14T04:37:31.504Z,13.10
2018-12-14T04:39:59.009Z,13.10
2018-12-14T04:42:26.771Z,13.57
2018-12-14T04:44:54.280Z,13.10
2018-12-14T04:47:21.953Z,12.57
2018-12-14T04:49:49.713Z,12.10
2018-12-14T04:52:17.277Z,13.50
2018-12-14T04:54:44.764Z,12.83
2018-12-14T04:57:12.245Z,13.00
2018-12-14T04:59:39.738Z,12.50
2018-12-14T05:02:07.233Z,13.00
2018-12-14T05:04:34.725Z,12.80
2018-12-14T05:07:02.212Z,13.27
2018-12-14T05:09:29.704Z,11.53
2018-12-14T05:11:57.573Z,13.80
2018-12-14T05:14:25.246Z,11.93
2018-12-14T05:16:52.829Z,12.90
2018-12-14T05:19:20.316Z,12.37
2018-12-14T05:21:48.074Z,12.90
2018-12-14T05:24:15.565Z,14.27
2018-12-14T05:26:43.048Z,12.60
2018-12-14T05:29:10.537Z,12.80
2018-12-14T05:31:38.023Z,14.50
2018-12-14T05:34:05.509Z,12.13
2018-12-14T05:36:32.996Z,12.90
2018-12-14T05:39:00.489Z,12.83
2018-12-14T05:41:27.996Z,13.27
2018-12-14T05:43:55.491Z,14.00
2018-12-14T05:46:22.979Z,13.50
2018-12-14T05:48:50.461Z,11.40
2018-12-14T05:51:17.956Z,13.60
2018-12-14T05:53:45.441Z,14.13
2018-12-14T05:56:12.932Z,11.90
2018-12-14T05:58:40.421Z,13.73
2018-12-14T06:01:07.914Z,13.70
2018-12-14T06:03:35.415Z,13.77
2018-12-14T06:06:02.908Z,13.30
2018-12-14T06:08:30.432Z,13.10
2018-12-14T06:10:57.931Z,12.63
2018-12-14T06:13:25.421Z,14.07
2018-12-14T06:15:52.909Z,14.70
2018-12-14T06:18:20.401Z,14.37
2018-12-14T06:20:47.901Z,13.97
2018-12-14T06:23:15.380Z,14.37
2018-12-14T06:25:42.880Z,13.40
2018-12-14T06:28:10.368Z,14.73
2018-12-14T06:30:37.865Z,13.47
2018-12-14T06:33:05.349Z,13.93
2018-12-14T06:35:33.122Z,15.57
2018-12-14T06:38:00.609Z,14.13
2018-12-14T06:40:28.106Z,15.07
2018-12-14T06:42:55.593Z,14.67
2018-12-14T06:45:23.089Z,14.13
2018-12-14T06:47:50.569Z,14.13
2018-12-14T06:50:18.072Z,15.73
2018-12-14T06:52:45.556Z,15.47
2018-12-14T06:55:13.044Z,14.80
2018-12-14T06:57:40.537Z,14.63
2018-12-14T07:00:08.239Z,14.27
2018-12-14T07:02:35.732Z,13.70
2018-12-14T07:05:03.436Z,14.60
2018-12-14T07:07:30.976Z,14.90
2018-12-14T07:09:58.468Z,14.20
2018-12-14T07:12:25.956Z,16.00
2018-12-14T07:14:53.440Z,15.13
2018-12-14T07:17:20.928Z,14.10
2018-12-14T07:19:48.413Z,14.73
2018-12-14T07:22:15.905Z,16.10
2018-12-14T07:24:43.401Z,14.47
2018-12-14T07:27:10.893Z,14.80
2018-12-14T07:29:38.380Z,15.30
2018-12-14T07:32:05.880Z,14.10
2018-12-14T07:34:33.370Z,14.07
2018-12-14T07:37:00.870Z,15.37
2018-12-14T07:39:28.364Z,14.87
2018-12-14T07:41:55.848Z,14.30
2018-12-14T07:44:23.375Z,16.03
2018-12-14T07:46:50.940Z,15.50
2018-12-14T07:49:18.431Z,14.93
2018-12-14T07:51:45.925Z,14.93
2018-12-14T07:54:13.412Z,16.17
2018-12-14T07:56:40.907Z,16.63
2018-12-14T07:59:08.576Z,17.27
2018-12-14T08:01:36.057Z,15.37
2018-12-14T08:04:03.617Z,18.20
2018-12-14T08:06:31.112Z,16.27
2018-12-14T08:08:58.600Z,16.97
2018-12-14T08:11:26.092Z,16.30
2018-12-14T08:13:53.584Z,17.60
2018-12-14T08:16:21.073Z,16.93
2018-12-14T08:18:48.565Z,15.37
2018-12-14T08:21:16.056Z,14.20
2018-12-14T08:23:43.548Z,17.80
2018-12-14T08:26:11.035Z,15.03
2018-12-14T08:28:38.526Z,15.10
2018-12-14T08:31:06.009Z,17.27
2018-12-14T08:33:33.496Z,15.13
2018-12-14T08:36:01.259Z,14.50
2018-12-14T08:38:28.975Z,14.80
2018-12-14T08:40:56.558Z,15.37
2018-12-14T08:43:24.041Z,14.87
2018-12-14T08:45:51.520Z,15.10
2018-12-14T08:48:19.085Z,15.73
2018-12-14T08:50:46.648Z,15.10
2018-12-14T08:53:14.401Z,15.87
2018-12-14T08:55:41.887Z,15.47
2018-12-14T08:58:09.379Z,15.17
2018-12-14T09:00:36.855Z,15.57
2018-12-14T09:03:04.346Z,13.13
2018-12-14T09:05:31.837Z,13.30
2018-12-14T09:07:59.329Z,14.80
2018-12-14T09:10:26.812Z,13.90
2018-12-14T09:12:54.300Z,15.30
2018-12-14T09:15:21.790Z,14.43
2018-12-14T09:17:49.275Z,14.77
2018-12-14T09:20:16.765Z,14.07
2018-12-14T09:22:44.252Z,13.00
2018-12-14T09:25:11.741Z,13.50
2018-12-14T09:27:39.232Z,12.10
2018-12-14T09:30:06.798Z,12.93
2018-12-14T09:32:34.284Z,13.97
2018-12-14T09:35:01.867Z,13.30
2018-12-14T09:37:29.365Z,12.40
2018-12-14T09:39:57.314Z,13.40
2018-12-14T09:42:24.849Z,12.23
2018-12-14T09:44:52.349Z,13.67
2018-12-14T09:47:19.835Z,13.07
2018-12-14T09:49:47.391Z,13.40
2018-12-14T09:52:14.879Z,15.27
2018-12-14T09:54:42.356Z,12.37
2018-12-14T09:57:09.836Z,12.97
2018-12-14T09:59:37.316Z,13.97
2018-12-14T10:02:04.882Z,13.87
2018-12-14T10:04:32.360Z,12.90
2018-12-14T10:06:59.848Z,14.20
2018-12-14T10:09:27.340Z,12.83
2018-12-14T10:11:55.171Z,11.87
2018-12-14T10:14:23.132Z,12.60
2018-12-14T10:16:50.612Z,12.03
2018-12-14T10:19:18.100Z,12.43
2018-12-14T10:21:45.585Z,10.60
2018-12-14T10:24:13.065Z,10.20
2018-12-14T10:26:40.549Z,11.07
2018-12-14T10:29:08.028Z,11.77
2018-12-14T10:31:35.508Z,12.07
2018-12-14T10:34:03.010Z,11.80
2018-12-14T10:36:30.507Z,10.67
2018-12-14T10:38:57.980Z,10.80
2018-12-14T10:41:25.461Z,10.13
2018-12-14T10:43:52.939Z,10.90
2018-12-14T10:46:20.433Z,11.07
2018-12-14T10:48:47.913Z,10.57
2018-12-14T10:51:15.479Z,11.20
2018-12-14T10:53:42.966Z,10.83
2018-12-14T10:56:10.461Z,12.03
2018-12-14T10:58:37.938Z,12.00
2018-12-14T11:01:14.345Z,10.03
2018-12-14T11:03:40.793Z,10.97
2018-12-14T11:06:08.276Z,10.80
2018-12-14T11:08:35.761Z,10.27
2018-12-14T11:11:03.245Z,9.23
2018-12-14T11:13:30.724Z,10.03
2018-12-14T11:15:58.208Z,10.40
2018-12-14T11:18:25.693Z,10.10
2018-12-14T11:20:53.172Z,9.43
2018-12-14T11:23:20.652Z,10.60
2018-12-14T11:25:48.444Z,9.97
2018-12-14T11:28:15.931Z,10.30
2018-12-14T11:30:43.408Z,10.33
2018-12-14T11:33:10.887Z,11.10
2018-12-14T11:35:39.228Z,10.30
2018-12-14T11:38:06.713Z,10.83
2018-12-14T11:40:34.192Z,10.50
2018-12-14T11:43:01.677Z,10.50
2018-12-14T11:45:29.159Z,10.07
2018-12-14T11:47:56.638Z,10.47
2018-12-14T11:50:24.195Z,10.60
2018-12-14T11:52:51.677Z,9.23
2018-12-14T11:55:19.378Z,10.53
2018-12-14T11:57:46.859Z,11.03
2018-12-14T12:00:14.593Z,11.23
2018-12-14T12:02:43.189Z,8.57
2018-12-14T12:05:11.091Z,10.47
2018-12-14T12:07:39.741Z,11.17
2018-12-14T12:10:08.111Z,10.37
2018-12-14T12:12:35.767Z,10.00
2018-12-14T12:15:03.403Z,10.23
2018-12-14T12:17:31.348Z,9.83
2018-12-14T12:19:58.834Z,10.80
2018-12-14T12:22:26.308Z,9.50
2018-12-14T12:24:53.797Z,10.60
2018-12-14T12:27:21.273Z,9.43
2018-12-14T12:29:48.748Z,9.60
2018-12-14T12:32:16.233Z,9.70
2018-12-14T12:34:43.792Z,9.50
2018-12-14T12:37:11.329Z,8.73
2018-12-14T12:39:38.812Z,11.13
2018-12-14T12:42:06.291Z,9.43
2018-12-14T12:44:33.915Z,8.90
2018-12-14T12:47:01.466Z,9.77
2018-12-14T12:49:28.937Z,9.30
2018-12-14T12:51:56.425Z,10.70
2018-12-14T12:54:23.908Z,11.17
2018-12-14T12:56:51.391Z,10.37
2018-12-14T12:59:18.871Z,10.40
2018-12-14T13:01:46.349Z,10.13
2018-12-14T13:04:13.829Z,11.00
2018-12-14T13:06:41.316Z,10.00
2018-12-14T13:09:08.793Z,9.50
2018-12-14T13:11:36.272Z,10.70
2018-12-14T13:14:03.828Z,10.60
2018-12-14T13:16:31.309Z,11.20
2018-12-14T13:18:58.788Z,10.17
2018-12-14T13:21:26.272Z,10.70
2018-12-14T13:23:53.749Z,8.60
2018-12-14T13:26:21.221Z,8.37
2018-12-14T13:28:48.701Z,8.30
2018-12-14T13:31:16.182Z,8.00
2018-12-14T13:33:43.657Z,8.37
2018-12-14T13:36:11.128Z,9.77
2018-12-14T13:38:38.628Z,9.30
2018-12-14T13:41:06.209Z,8.87
2018-12-14T13:43:33.711Z,10.30
2018-12-14T13:46:01.293Z,12.30
2018-12-14T13:48:28.778Z,15.20
2018-12-14T13:50:56.256Z,12.80
2018-12-14T13:53:23.741Z,12.63
2018-12-14T13:55:51.225Z,7.63
2018-12-14T13:58:18.720Z,7.50
2018-12-14T14:00:46.192Z,6.40
2018-12-14T14:03:13.669Z,7.10
2018-12-14T14:05:41.145Z,6.27
2018-12-14T14:08:08.617Z,6.97
2018-12-14T14:10:36.092Z,7.10
2018-12-14T14:13:03.572Z,6.87
2018-12-14T14:15:31.086Z,7.00
2018-12-14T14:17:58.564Z,7.00
2018-12-14T14:20:26.252Z,6.07
2018-12-14T14:22:53.774Z,6.43
2018-12-14T14:25:21.332Z,6.17
2018-12-14T14:27:48.806Z,6.90
2018-12-14T14:30:16.292Z,6.90
2018-12-14T14:32:43.773Z,6.97
2018-12-14T14:35:11.253Z,6.33
2018-12-14T14:37:38.736Z,6.33
2018-12-14T14:40:06.368Z,7.37
2018-12-14T14:42:33.844Z,7.03
2018-12-14T14:45:01.327Z,6.23
2018-12-14T14:47:28.808Z,7.00
2018-12-14T14:49:56.284Z,6.90
2018-12-14T14:52:23.772Z,8.40
2018-12-14T14:54:51.423Z,6.97
2018-12-14T14:57:18.900Z,7.00
2018-12-14T14:59:46.390Z,6.83
2018-12-14T15:02:13.873Z,6.80
2018-12-14T15:04:41.353Z,6.80
2018-12-14T15:07:08.848Z,7.00
2018-12-14T15:09:36.330Z,6.97
2018-12-14T15:12:03.805Z,6.50
2018-12-14T15:14:31.322Z,7.27
2018-12-14T15:16:58.808Z,7.07
2018-12-14T15:19:26.296Z,6.63
2018-12-14T15:21:53.789Z,7.63
2018-12-14T15:24:21.272Z,6.80
2018-12-14T15:26:48.760Z,8.60
2018-12-14T15:29:16.252Z,6.67
2018-12-14T15:31:44.419Z,7.13
2018-12-14T15:34:14.528Z,7.60
2018-12-14T15:36:41.475Z,7.20
2018-12-14T15:39:08.955Z,7.13
2018-12-14T15:41:36.458Z,7.23
2018-12-14T15:44:03.940Z,7.43
2018-12-14T15:46:31.464Z,7.10
2018-12-14T15:48:58.955Z,7.13
2018-12-14T15:51:26.440Z,8.30
2018-12-14T15:53:53.933Z,8.03
2018-12-14T15:56:21.418Z,8.07
2018-12-14T15:58:48.899Z,9.57
2018-12-14T16:01:16.384Z,9.80
2018-12-14T16:03:43.868Z,9.17
2018-12-14T16:06:11.357Z,9.10
2018-12-14T16:08:38.844Z,9.60
2018-12-14T16:11:06.338Z,9.93
2018-12-14T16:13:33.827Z,9.33
2018-12-14T16:16:01.310Z,9.43
2018-12-14T16:18:28.826Z,9.07
2018-12-14T16:20:56.401Z,9.10
2018-12-14T16:23:23.951Z,8.70
2018-12-14T16:25:51.509Z,9.33
2018-12-14T16:28:18.994Z,9.57
2018-12-14T16:30:46.494Z,10.00
2018-12-14T16:33:14.094Z,9.57
2018-12-14T16:35:41.577Z,9.50
2018-12-14T16:38:09.064Z,9.60
2018-12-14T16:40:36.549Z,9.83
2018-12-14T16:43:04.029Z,9.13
2018-12-14T16:45:31.592Z,10.60
2018-12-14T16:47:59.556Z,10.60
2018-12-14T16:50:27.044Z,9.77
2018-12-14T16:52:54.531Z,9.60
2018-12-14T16:55:22.032Z,9.10
2018-12-14T16:57:49.825Z,10.07
2018-12-14T17:00:17.528Z,9.47
2018-12-14T17:02:45.018Z,9.63
2018-12-14T17:05:12.512Z,11.53
2018-12-14T17:07:40.000Z,10.50
2018-12-14T17:10:07.583Z,12.53
2018-12-14T17:12:35.072Z,12.33
2018-12-14T17:15:02.718Z,10.90
2018-12-14T17:17:30.208Z,11.97
2018-12-14T17:19:57.697Z,14.07
2018-12-14T17:22:25.192Z,13.03
2018-12-14T17:24:52.680Z,12.07
2018-12-14T17:27:20.165Z,9.73
2018-12-14T17:29:47.649Z,10.43
2018-12-14T17:32:15.152Z,10.80
2018-12-14T17:34:42.637Z,9.93
2018-12-14T17:37:10.120Z,10.00
2018-12-14T17:39:37.605Z,9.70
2018-12-14T17:44:58.168Z,11.33
2018-12-14T17:47:25.652Z,14.03
2018-12-14T17:49:53.137Z,15.20
2018-12-14T17:52:20.625Z,14.57
2018-12-14T17:54:48.121Z,13.87
2018-12-14T17:57:15.614Z,13.90
2018-12-14T17:59:43.100Z,14.90
2018-12-14T18:02:10.584Z,13.60
2018-12-14T18:04:38.377Z,12.90
2018-12-14T18:07:05.941Z,12.20
2018-12-14T18:09:34.148Z,12.30
2018-12-14T18:12:01.864Z,12.90
2018-12-14T18:14:29.357Z,12.17
2018-12-14T18:16:56.863Z,13.53
2018-12-14T18:19:24.352Z,13.97
2018-12-14T18:21:51.851Z,15.43
2018-12-14T18:24:19.345Z,14.37
2018-12-14T18:26:46.835Z,14.97
2018-12-14T18:29:14.321Z,12.87
2018-12-14T18:31:41.813Z,12.63
2018-12-14T18:34:09.310Z,10.93
2018-12-14T18:36:36.797Z,12.87
2018-12-14T18:39:06.639Z,12.60
2018-12-14T18:41:34.590Z,12.33
2018-12-14T18:44:02.078Z,12.93
2018-12-14T18:46:29.571Z,12.63
2018-12-14T18:48:57.064Z,12.87
2018-12-14T18:51:24.564Z,12.23
2018-12-14T18:53:56.528Z,13.67
2018-12-14T18:56:24.193Z,13.80
2018-12-14T18:58:51.681Z,12.07
2018-12-14T19:01:19.168Z,8.87
2018-12-14T19:03:46.660Z,10.07
2018-12-14T19:06:14.150Z,12.60
2018-12-14T19:08:41.713Z,13.20
2018-12-14T19:11:09.204Z,10.80
2018-12-14T19:13:36.700Z,11.20
2018-12-14T19:16:04.305Z,9.30
2018-12-14T19:18:31.792Z,8.57
2018-12-14T19:20:59.282Z,8.23
2018-12-14T19:23:26.770Z,7.27
2018-12-14T19:25:54.260Z,7.30
2018-12-14T19:28:21.749Z,7.70
2018-12-14T19:30:49.241Z,7.10
2018-12-14T19:33:16.721Z,7.50
2018-12-14T19:35:44.235Z,7.50
2018-12-14T19:38:11.729Z,8.00
2018-12-14T19:40:39.220Z,7.30
2018-12-14T19:43:06.705Z,6.60
2018-12-14T19:45:34.204Z,7.10
2018-12-14T19:48:01.713Z,6.60
2018-12-14T19:50:29.200Z,7.17
2018-12-14T19:52:56.688Z,7.07
2018-12-14T19:55:24.188Z,7.50
2018-12-14T19:57:51.839Z,7.10
2018-12-14T20:00:19.425Z,7.83
2018-12-14T20:02:46.905Z,6.77
2018-12-14T20:05:14.409Z,7.67
2018-12-14T20:07:41.989Z,6.87
2018-12-14T20:10:09.555Z,7.33
2018-12-14T20:12:37.048Z,6.70
2018-12-14T20:15:06.209Z,7.80
2018-12-14T20:17:33.693Z,7.20
2018-12-14T20:20:01.183Z,7.80
2018-12-14T20:22:28.670Z,8.13
2018-12-14T20:24:56.164Z,10.10
2018-12-14T20:27:23.652Z,8.57
2018-12-14T20:29:51.145Z,8.30
2018-12-14T20:32:18.637Z,9.87
2018-12-14T20:34:46.130Z,8.40
2018-12-14T20:37:13.626Z,9.87
2018-12-14T20:39:41.108Z,7.80
2018-12-14T20:42:08.600Z,7.43
2018-12-14T20:44:36.104Z,8.03
2018-12-14T20:47:03.670Z,9.20
2018-12-14T20:49:31.160Z,8.20
2018-12-14T20:51:58.655Z,8.57
2018-12-14T20:54:26.228Z,8.40
2018-12-14T20:56:53.736Z,8.87
2018-12-14T20:59:21.221Z,7.53
2018-12-14T21:01:48.709Z,7.70
2018-12-14T21:04:16.206Z,8.00
2018-12-14T21:06:43.689Z,7.70
2018-12-14T21:09:11.172Z,8.47
2018-12-14T21:11:38.665Z,8.77
2018-12-14T21:14:06.158Z,8.50
2018-12-14T21:16:33.652Z,9.07
2018-12-14T21:19:01.144Z,7.60
2018-12-14T21:21:28.638Z,9.47
2018-12-14T21:23:56.134Z,7.90
2018-12-14T21:26:23.624Z,8.77
2018-12-14T21:28:51.109Z,8.60
2018-12-14T21:31:18.595Z,9.40
2018-12-14T21:33:46.086Z,7.83
2018-12-14T21:36:13.572Z,8.23
2018-12-14T21:38:41.061Z,8.57
2018-12-14T21:41:08.549Z,8.57
2018-12-14T21:43:36.037Z,7.90
2018-12-14T21:46:03.530Z,7.13
2018-12-14T21:48:31.066Z,7.80
2018-12-14T21:50:58.597Z,8.20
2018-12-14T21:53:26.155Z,8.03
2018-12-14T21:55:53.641Z,6.97
2018-12-14T21:58:21.130Z,7.50
2018-12-14T22:00:48.626Z,6.67
2018-12-14T22:03:16.104Z,7.70
2018-12-14T22:05:43.920Z,7.10
2018-12-14T22:08:11.417Z,8.53
2018-12-14T22:10:38.905Z,7.73
2018-12-14T22:13:06.392Z,6.90
2018-12-14T22:15:33.881Z,7.33
2018-12-14T22:18:01.369Z,8.63
2018-12-14T22:20:28.861Z,7.90
2018-12-14T22:22:56.344Z,8.40
2018-12-14T22:25:23.832Z,7.70
2018-12-14T22:27:52.156Z,6.90
2018-12-14T22:30:19.835Z,7.27
2018-12-14T22:32:50.580Z,7.30
2018-12-14T22:35:18.065Z,7.70
2018-12-14T22:37:45.570Z,7.77
2018-12-14T22:40:13.054Z,7.33
2018-12-14T22:42:40.548Z,8.03
2018-12-14T22:45:08.112Z,7.70
2018-12-14T22:47:35.605Z,9.57
2018-12-14T22:50:03.172Z,11.53
2018-12-14T22:52:30.680Z,12.37
2018-12-14T22:54:58.177Z,13.10
2018-12-14T22:57:25.678Z,10.33
2018-12-14T22:59:53.525Z,12.87
2018-12-14T23:02:21.018Z,14.10
2018-12-14T23:04:48.519Z,12.80
2018-12-14T23:07:16.028Z,12.93
2018-12-14T23:09:43.520Z,13.63
2018-12-14T23:12:11.017Z,11.43
2018-12-14T23:14:38.508Z,9.67
2018-12-14T23:17:06.007Z,10.00
2018-12-14T23:19:33.521Z,8.83
2018-12-14T23:22:01.094Z,7.57
2018-12-14T23:24:28.582Z,7.90
2018-12-14T23:26:56.084Z,7.93
2018-12-14T23:29:23.568Z,7.27
2018-12-14T23:31:51.061Z,8.57
2018-12-14T23:34:18.551Z,7.40
2018-12-14T23:36:46.037Z,8.17
2018-12-14T23:39:13.543Z,6.93
2018-12-14T23:41:41.036Z,8.50
2018-12-14T23:44:08.815Z,7.70
2018-12-14T23:46:36.309Z,9.90
2018-12-14T23:49:03.904Z,9.07
2018-12-14T23:51:31.597Z,9.87
2018-12-14T23:53:59.090Z,8.53
2018-12-14T23:56:26.577Z,8.87
2018-12-14T23:58:54.061Z,8.57
